Terminal Aerodrome Forecast
Issued by NWS Memphis, TN

Home | Current Version | Previous Version | Text Only | Print | Product List | Glossary On
Versions: 1 2 3 4 5 6 7 8 9 10 11 12 13 14 15 16 17 18 19 20 21 22 23 24 25
000
FTUS44 KMEG 291130
TAFMEM
TAF
KMEM 291130Z 2912/3012 VRB03KT P6SM BKN150
     FM291500 26005KT P6SM SCT040 SCT150
     FM291900 30007KT P6SM SCT050 SCT250
     FM300300 02005KT P6SM SCT040 SCT250=

USA.gov is the U.S. government's official web portal to all federal, state and local government web resources and services.